createdAt,value
2022-09-06T00:03:01.351Z,101773.88
2022-09-06T00:08:00.886Z,101772.22
2022-09-06T00:13:07.169Z,101787.16
2022-09-06T00:18:06.842Z,101757.19
2022-09-06T00:23:06.347Z,101749.03
2022-09-06T00:28:06.048Z,101756.16
2022-09-06T00:33:04.006Z,101757.78
2022-09-06T00:38:02.658Z,101753.69
2022-09-06T00:43:12.774Z,101738.59
2022-09-06T00:48:10.558Z,101788.34
2022-09-06T00:53:08.505Z,101752.03
2022-09-06T00:58:06.615Z,101761.47
2022-09-06T01:03:05.211Z,101759.81
2022-09-06T01:08:17.482Z,101772.66
2022-09-06T01:13:42.289Z,101785.53
2022-09-06T01:18:50.409Z,101787.72
2022-09-06T01:24:12.210Z,101782.06
2022-09-06T01:29:17.408Z,101748.41
2022-09-06T01:34:22.344Z,101743.91
2022-09-06T01:39:25.040Z,101780.44
2022-09-06T01:44:26.272Z,101747.78
2022-09-06T01:49:43.123Z,101757.56
2022-09-06T01:54:44.388Z,101763.91
2022-09-06T02:00:09.239Z,101756.69
2022-09-06T02:05:22.121Z,101739.59
2022-09-06T02:10:44.888Z,101708.44
2022-09-06T02:15:56.951Z,101699.88
2022-09-06T02:20:56.343Z,101703.94
2022-09-06T02:25:58.162Z,101756.16
2022-09-06T02:30:58.733Z,101726.03
2022-09-06T02:36:01.907Z,101721.31
2022-09-06T02:41:00.155Z,101751.00
2022-09-06T02:45:58.696Z,101726.13
2022-09-06T02:51:07.370Z,101754.44
2022-09-06T02:56:05.211Z,101734.34
2022-09-06T03:01:04.308Z,101716.88
2022-09-06T03:06:01.966Z,101717.72
2022-09-06T03:11:00.280Z,101720.97
2022-09-06T03:15:59.989Z,101713.81
2022-09-06T03:20:58.902Z,101720.66
2022-09-06T03:25:57.583Z,101720.53
2022-09-06T03:30:56.109Z,101725.78
2022-09-06T03:35:55.618Z,101743.34
2022-09-06T03:40:54.536Z,101734.06
2022-09-06T03:45:55.942Z,101735.47
2022-09-06T03:50:56.583Z,101755.13
2022-09-06T03:55:56.092Z,101728.47
2022-09-06T04:01:08.767Z,101738.22
2022-09-06T04:06:07.734Z,101771.22
2022-09-06T04:11:05.492Z,101743.28
2022-09-06T04:16:06.486Z,101765.72
2022-09-06T04:21:04.374Z,101768.47
2022-09-06T04:26:01.849Z,101744.25
2022-09-06T04:31:04.996Z,101749.63
2022-09-06T04:36:07.714Z,101776.78
2022-09-06T04:41:07.431Z,101749.44
2022-09-06T04:46:27.984Z,101787.00
2022-09-06T04:51:25.854Z,101788.94
2022-09-06T04:56:26.602Z,101762.63
2022-09-06T05:01:26.522Z,101803.53
2022-09-06T05:06:25.424Z,101778.31
2022-09-06T05:11:24.454Z,101755.94
2022-09-06T05:16:22.918Z,101767.38
2022-09-06T05:21:21.427Z,101766.06
2022-09-06T05:26:19.918Z,101762.22
2022-09-06T05:31:27.055Z,101793.19
2022-09-06T05:36:25.989Z,101759.81
2022-09-06T05:41:24.606Z,101779.31
2022-09-06T05:46:23.091Z,101785.06
2022-09-06T05:51:20.597Z,101768.09
2022-09-06T05:56:19.417Z,101774.25
2022-09-06T06:01:22.497Z,101768.56
2022-09-06T06:06:21.237Z,101804.28
2022-09-06T06:11:19.527Z,101800.19
2022-09-06T06:16:20.046Z,101788.81
2022-09-06T06:21:23.114Z,101811.84
2022-09-06T06:26:21.000Z,101811.34
2022-09-06T06:31:21.380Z,101796.28
2022-09-06T06:36:18.802Z,101810.31
2022-09-06T06:41:19.461Z,101771.97
2022-09-06T06:46:19.413Z,101800.59
2022-09-06T06:51:20.496Z,101783.50
2022-09-06T06:56:22.346Z,101816.03
2022-09-06T07:01:22.326Z,101782.13
2022-09-06T07:11:43.607Z,101797.22
2022-09-06T07:16:41.276Z,101803.03
2022-09-06T07:21:40.109Z,101811.59
2022-09-06T07:32:11.640Z,101801.22
2022-09-06T07:37:12.300Z,101828.47
2022-09-06T07:42:10.986Z,101784.03
2022-09-06T07:58:01.664Z,101812.97
2022-09-06T08:03:00.383Z,101829.31
2022-09-06T08:13:19.101Z,101798.00
2022-09-06T08:18:17.281Z,101772.88
2022-09-06T08:23:15.086Z,101805.41
2022-09-06T08:28:18.574Z,101766.22
2022-09-06T08:33:16.354Z,101778.94
2022-09-06T08:38:18.165Z,101761.41
2022-09-06T08:43:20.181Z,101776.00
2022-09-06T08:48:19.353Z,101773.91
2022-09-06T08:53:21.987Z,101764.88
2022-09-06T08:58:29.869Z,101790.38
2022-09-06T09:03:34.493Z,101757.78
2022-09-06T09:08:45.103Z,101783.72
2022-09-06T09:14:08.294Z,101758.03
2022-09-06T09:19:07.079Z,101732.13
2022-09-06T09:24:09.978Z,101722.41
2022-09-06T09:29:13.190Z,101723.78
2022-09-06T09:34:17.503Z,101720.31
2022-09-06T09:39:15.520Z,101732.75
2022-09-06T09:44:28.323Z,101735.06
2022-09-06T09:49:25.866Z,101744.19
2022-09-06T09:54:34.494Z,101730.16
2022-09-06T09:59:43.692Z,101710.28
2022-09-06T10:04:53.068Z,101717.41
2022-09-06T10:10:05.528Z,101731.13
2022-09-06T10:15:07.432Z,101711.16
2022-09-06T10:20:11.070Z,101683.13
2022-09-06T10:25:49.716Z,101690.25
2022-09-06T10:31:13.491Z,101717.38
2022-09-06T10:36:17.027Z,101680.03
2022-09-06T10:41:34.921Z,101702.41
2022-09-06T10:46:35.030Z,101691.25
2022-09-06T10:51:46.248Z,101677.63
2022-09-06T10:56:50.533Z,101689.16
2022-09-06T11:02:02.450Z,101672.78
2022-09-06T11:07:05.325Z,101655.34
2022-09-06T11:12:02.673Z,101690.34
2022-09-06T11:17:05.123Z,101661.59
2022-09-06T11:22:09.485Z,101685.63
2022-09-06T11:27:20.568Z,101681.00
2022-09-06T11:32:34.617Z,101646.59
2022-09-06T11:37:44.930Z,101662.00
2022-09-06T11:42:46.304Z,101674.69
2022-09-06T11:47:45.680Z,101642.88
2022-09-06T11:52:59.565Z,101659.69
2022-09-06T11:58:00.302Z,101627.81
2022-09-06T12:08:32.659Z,101643.78
2022-09-06T12:14:03.245Z,101623.38
2022-09-06T12:19:01.819Z,101610.34
2022-09-06T12:24:31.303Z,101600.75
2022-09-06T12:29:29.345Z,101586.47
2022-09-06T12:34:31.982Z,101603.31
2022-09-06T12:39:30.396Z,101591.56
2022-09-06T12:44:34.935Z,101592.41
2022-09-06T12:49:33.445Z,101614.16
2022-09-06T12:54:32.475Z,101613.53
2022-09-06T12:59:30.179Z,101609.69
2022-09-06T13:04:28.214Z,101613.41
2022-09-06T13:09:27.784Z,101588.56
2022-09-06T13:14:28.268Z,101596.25
2022-09-06T13:19:42.983Z,101603.09
2022-09-06T13:25:08.068Z,101592.22
2022-09-06T13:30:10.371Z,101566.50
2022-09-06T13:35:10.563Z,101581.69
2022-09-06T13:41:11.533Z,101590.97
2022-09-06T13:46:16.444Z,101551.47
2022-09-06T13:51:14.547Z,101562.84
2022-09-06T13:56:12.966Z,101565.81
2022-09-06T14:01:11.779Z,101558.56
2022-09-06T14:06:10.823Z,101554.81
2022-09-06T14:11:09.502Z,101564.56
2022-09-06T14:16:07.340Z,101563.44
2022-09-06T14:21:05.858Z,101540.38
2022-09-06T14:26:04.745Z,101538.72
2022-09-06T14:31:12.267Z,101525.53
2022-09-06T14:36:17.175Z,101546.91
2022-09-06T14:41:16.569Z,101502.94
2022-09-06T14:46:15.942Z,101515.44
2022-09-06T14:51:22.223Z,101490.69
2022-09-06T14:56:22.610Z,101491.59
2022-09-06T15:01:23.457Z,101520.25
2022-09-06T15:06:22.970Z,101500.16
2022-09-06T15:11:52.256Z,101498.41
2022-09-06T15:16:55.948Z,101504.31
2022-09-06T15:21:55.790Z,101496.94
2022-09-06T15:26:54.487Z,101507.22
2022-09-06T15:31:54.705Z,101504.31
2022-09-06T15:36:53.842Z,101497.41
2022-09-06T15:42:01.303Z,101492.66
2022-09-06T15:47:02.116Z,101484.75
2022-09-06T15:52:09.531Z,101505.84
2022-09-06T15:57:08.915Z,101502.66
2022-09-06T16:02:08.660Z,101505.56
2022-09-06T16:07:07.340Z,101486.78
2022-09-06T16:12:05.465Z,101491.09
2022-09-06T16:17:03.944Z,101470.16
2022-09-06T16:22:02.703Z,101485.00
2022-09-06T16:27:04.106Z,101507.28
2022-09-06T16:32:02.147Z,101469.94
2022-09-06T16:37:01.290Z,101508.47
2022-09-06T16:42:00.402Z,101486.59
2022-09-06T16:47:04.288Z,101482.28
2022-09-06T16:52:04.693Z,101492.38
2022-09-06T16:57:06.242Z,101515.91
2022-09-06T17:02:04.103Z,101486.25
2022-09-06T17:07:03.295Z,101472.59
2022-09-06T17:12:03.942Z,101503.38
2022-09-06T17:17:05.578Z,101481.16
2022-09-06T17:22:13.811Z,101488.41
2022-09-06T17:27:12.398Z,101520.34
2022-09-06T17:32:14.703Z,101507.59
2022-09-06T17:37:16.571Z,101509.78
2022-09-06T17:42:20.175Z,101494.91
2022-09-06T17:47:40.670Z,101488.47
2022-09-06T17:52:43.142Z,101538.91
2022-09-06T17:57:54.036Z,101511.13
2022-09-06T18:02:55.537Z,101532.47
2022-09-06T18:07:53.499Z,101555.31
2022-09-06T18:12:56.794Z,101541.63
2022-09-06T18:17:54.888Z,101519.63
2022-09-06T18:23:18.820Z,101555.28
2022-09-06T18:28:23.586Z,101527.91
2022-09-06T18:33:26.043Z,101525.03
2022-09-06T18:38:34.144Z,101516.69
2022-09-06T18:43:46.017Z,101536.19
2022-09-06T18:48:47.430Z,101539.13
2022-09-06T18:53:46.972Z,101569.25
2022-09-06T18:58:49.156Z,101535.56
2022-09-06T19:03:48.044Z,101536.16
2022-09-06T19:08:49.821Z,101537.13
2022-09-06T19:13:51.520Z,101526.91
2022-09-06T19:19:06.406Z,101543.34
2022-09-06T19:24:08.054Z,101531.06
2022-09-06T19:29:13.347Z,101573.34
2022-09-06T19:34:13.882Z,101541.31
2022-09-06T19:39:14.838Z,101552.84
2022-09-06T19:44:17.830Z,101534.94
2022-09-06T19:49:19.799Z,101553.81
2022-09-06T19:54:18.965Z,101529.25
2022-09-06T19:59:20.654Z,101538.59
2022-09-06T20:04:22.761Z,101536.94
2022-09-06T20:09:24.490Z,101521.28
2022-09-06T20:14:29.422Z,101531.09
2022-09-06T20:19:30.759Z,101563.47
2022-09-06T20:24:30.616Z,101519.03
2022-09-06T20:29:30.472Z,101530.94
2022-09-06T20:34:31.223Z,101522.28
2022-09-06T20:39:32.304Z,101539.50
2022-09-06T20:44:29.920Z,101535.88
2022-09-06T20:49:53.674Z,101573.91
2022-09-06T20:54:57.435Z,101522.59
2022-09-06T20:59:55.444Z,101556.78
2022-09-06T21:04:57.511Z,101541.44
2022-09-06T21:09:55.736Z,101536.88
2022-09-06T21:15:25.727Z,101538.22
2022-09-06T21:20:29.446Z,101531.94
2022-09-06T21:25:31.937Z,101551.72
2022-09-06T21:30:35.467Z,101542.81
2022-09-06T21:35:35.195Z,101517.22
2022-09-06T21:40:41.271Z,101535.13
2022-09-06T21:45:43.424Z,101537.22
2022-09-06T21:50:53.733Z,101542.34
2022-09-06T21:55:55.409Z,101537.91
2022-09-06T22:01:01.474Z,101563.34
2022-09-06T22:05:59.789Z,101545.44
2022-09-06T22:11:11.178Z,101527.56
2022-09-06T22:16:23.392Z,101546.66
2022-09-06T22:21:26.102Z,101514.91
2022-09-06T22:26:39.388Z,101531.22
2022-09-06T22:31:46.929Z,101525.50
2022-09-06T22:36:45.556Z,101514.31
2022-09-06T22:41:46.039Z,101508.00
2022-09-06T22:46:45.437Z,101518.38
2022-09-06T22:51:43.611Z,101492.13
2022-09-06T22:56:44.742Z,101495.56
2022-09-06T23:01:45.854Z,101507.59
2022-09-06T23:06:44.956Z,101508.19
2022-09-06T23:11:53.470Z,101481.13
2022-09-06T23:16:54.181Z,101495.38
2022-09-06T23:21:51.874Z,101501.47
2022-09-06T23:26:49.363Z,101487.03
2022-09-06T23:31:49.602Z,101478.66
2022-09-06T23:36:50.743Z,101471.53
2022-09-06T23:41:55.251Z,101472.56
2022-09-06T23:46:54.303Z,101514.28
2022-09-06T23:51:54.030Z,101506.75
2022-09-06T23:56:53.093Z,101492.47
